Time;durP1;ratioP1;P1;durP2;ratioP2;P2;SDS_P1;SDS_P2;PMS_P1;PMS_P2;Temp;Humidity;BMP_temperature;BMP_pressure;BME280_temperature;BME280_humidity;BME280_pressure;Samples;Min_cycle;Max_cycle;Signal;HPM_P1;HPM_P2
2022/01/06 00:00:35;;;;;;;4.72;1.10;;;4.00;99.90;;;;;;4958690;28;20109;-66
2022/01/06 00:03:01;;;;;;;11.75;1.65;;;3.90;99.90;;;;;;4972957;28;20578;-66
2022/01/06 00:05:26;;;;;;;7.93;1.20;;;3.80;99.90;;;;;;4958749;28;20085;-66
2022/01/06 00:07:52;;;;;;;5.75;1.70;;;3.80;99.90;;;;;;4976445;28;20345;-66
2022/01/06 00:10:18;;;;;;;8.90;1.30;;;3.70;99.90;;;;;;4958922;28;20463;-66
2022/01/06 00:13:06;;;;;;;6.25;1.10;;;3.60;99.90;;;;;;4957482;28;20039;-66
2022/01/06 00:16:02;;;;;;;12.38;1.30;;;3.50;99.90;;;;;;4970640;28;20091;-66
2022/01/06 00:24:09;;;;;;;8.32;1.90;;;3.50;99.90;;;;;;4976310;28;20046;-66
2022/01/06 00:26:35;;;;;;;10.48;1.45;;;3.40;99.90;;;;;;4976322;28;20513;-66
2022/01/06 00:29:00;;;;;;;11.50;1.48;;;3.40;99.90;;;;;;4971484;28;20053;-66
2022/01/06 00:31:26;;;;;;;9.82;1.33;;;3.40;99.90;;;;;;4969832;28;20042;-66
2022/01/06 00:33:51;;;;;;;12.20;1.67;;;3.40;99.90;;;;;;4956016;28;20491;-65
2022/01/06 00:44:17;;;;;;;9.83;1.30;;;3.40;99.90;;;;;;4899159;29;20083;-65
2022/01/06 00:46:42;;;;;;;4.00;1.30;;;3.10;99.90;;;;;;4870453;29;20291;-65
2022/01/06 00:49:08;;;;;;;9.13;1.58;;;3.00;99.90;;;;;;4885388;29;20032;-65
2022/01/06 00:51:33;;;;;;;7.78;1.50;;;2.90;99.90;;;;;;4884233;29;20112;-65
2022/01/06 00:53:59;;;;;;;8.88;1.92;;;2.80;99.90;;;;;;4899055;29;20032;-65
2022/01/06 00:56:24;;;;;;;5.15;1.30;;;2.70;99.90;;;;;;4899291;29;20092;-66
2022/01/06 00:58:50;;;;;;;5.53;1.63;;;2.60;99.90;;;;;;4897414;29;20043;-66
2022/01/06 01:01:15;;;;;;;5.10;1.25;;;2.60;99.90;;;;;;4892826;29;20475;-65
2022/01/06 01:03:41;;;;;;;5.75;1.48;;;2.50;99.90;;;;;;4879882;29;20400;-65
2022/01/06 01:06:07;;;;;;;4.78;1.60;;;2.50;99.90;;;;;;4894618;29;20422;-66
2022/01/06 01:08:34;;;;;;;4.70;1.55;;;2.50;99.90;;;;;;4885515;29;20404;-65
2022/01/06 01:10:59;;;;;;;9.77;1.63;;;2.50;99.90;;;;;;4882469;29;20112;-66
2022/01/06 01:13:30;;;;;;;10.90;2.42;;;2.50;99.90;;;;;;4890714;29;20037;-65
2022/01/06 01:15:57;;;;;;;4.20;1.50;;;2.50;99.90;;;;;;4894567;29;20036;-65
2022/01/06 01:18:23;;;;;;;5.18;1.50;;;2.50;99.90;;;;;;4883063;29;20040;-65
2022/01/06 01:20:49;;;;;;;3.47;1.25;;;2.40;99.90;;;;;;4868871;29;20035;-66
2022/01/06 01:23:14;;;;;;;8.43;1.70;;;2.30;99.90;;;;;;4881018;29;20444;-65
2022/01/06 01:25:40;;;;;;;5.10;1.38;;;2.20;99.90;;;;;;4886359;29;20142;-66
2022/01/06 01:28:05;;;;;;;5.70;1.48;;;2.10;99.90;;;;;;4896246;29;20106;-66
2022/01/06 01:30:41;;;;;;;9.07;2.05;;;2.00;99.90;;;;;;4880752;29;20444;-65
2022/01/06 01:33:14;;;;;;;7.95;1.75;;;2.00;99.90;;;;;;4894618;29;20458;-65
2022/01/06 01:35:40;;;;;;;11.35;2.13;;;1.80;99.90;;;;;;4894763;29;20516;-66
2022/01/06 01:38:06;;;;;;;8.73;1.70;;;1.80;99.90;;;;;;4895947;29;20161;-66
2022/01/06 01:40:31;;;;;;;8.63;1.90;;;1.70;99.90;;;;;;4897749;29;20044;-66
2022/01/06 01:42:57;;;;;;;4.03;1.70;;;1.70;99.90;;;;;;4895443;29;20143;-66
2022/01/06 01:45:28;;;;;;;7.82;1.85;;;1.60;99.90;;;;;;4894896;29;20036;-65
2022/01/06 01:47:54;;;;;;;4.78;1.50;;;1.60;99.90;;;;;;4885248;29;20024;-65
2022/01/06 01:50:21;;;;;;;6.15;1.73;;;1.60;99.90;;;;;;4899826;29;20039;-66
2022/01/06 01:52:46;;;;;;;4.60;1.75;;;1.60;99.90;;;;;;4882593;29;20822;-66
2022/01/06 01:55:12;;;;;;;11.13;1.83;;;1.60;99.90;;;;;;4899032;29;20139;-66
2022/01/06 01:57:38;;;;;;;7.53;2.00;;;1.60;99.90;;;;;;4876880;29;20540;-66
2022/01/06 02:00:03;;;;;;;9.05;1.73;;;1.70;99.90;;;;;;4884702;29;20484;-65
2022/01/06 02:02:37;;;;;;;7.00;1.50;;;1.80;99.90;;;;;;4900725;29;20031;-65
2022/01/06 02:05:06;;;;;;;2.60;1.10;;;1.70;99.90;;;;;;4869028;29;20032;-66
2022/01/06 02:07:31;;;;;;;6.95;1.20;;;1.80;99.90;;;;;;4898873;29;20075;-66
2022/01/06 02:09:57;;;;;;;4.07;1.38;;;1.80;99.90;;;;;;4869452;29;20028;-66
2022/01/06 02:12:23;;;;;;;6.70;1.95;;;1.90;99.90;;;;;;4896575;29;20368;-66
2022/01/06 02:14:48;;;;;;;7.20;1.17;;;1.90;99.90;;;;;;4901244;29;20039;-66
2022/01/06 02:17:14;;;;;;;7.05;1.58;;;1.90;99.90;;;;;;4883865;29;20043;-65
2022/01/06 02:19:39;;;;;;;5.68;1.30;;;2.00;99.90;;;;;;4885417;29;20051;-66
2022/01/06 02:22:05;;;;;;;6.57;1.20;;;2.00;99.90;;;;;;4896254;29;20296;-66
2022/01/06 02:24:30;;;;;;;3.40;1.23;;;2.00;99.90;;;;;;4895606;29;20128;-65
2022/01/06 02:26:56;;;;;;;5.47;1.35;;;2.00;99.90;;;;;;4874856;29;20048;-65
2022/01/06 02:29:21;;;;;;;4.13;0.98;;;1.90;99.90;;;;;;4896695;29;20040;-66
2022/01/06 02:31:47;;;;;;;5.97;1.08;;;1.90;99.90;;;;;;4898727;29;20131;-65
2022/01/06 02:34:12;;;;;;;6.75;1.08;;;1.90;99.90;;;;;;4893254;29;20033;-65
2022/01/06 02:36:38;;;;;;;5.13;1.30;;;1.90;99.90;;;;;;4896909;29;20036;-66
2022/01/06 02:39:03;;;;;;;5.60;1.33;;;1.80;99.90;;;;;;4886657;29;20044;-65
2022/01/06 02:41:29;;;;;;;9.52;1.35;;;1.80;99.90;;;;;;4893240;29;20036;-66
2022/01/06 02:43:55;;;;;;;6.80;1.45;;;1.70;99.90;;;;;;4899423;29;20563;-66
2022/01/06 02:46:21;;;;;;;5.90;1.20;;;2.00;99.90;;;;;;4894311;29;20699;-66
2022/01/06 02:48:46;;;;;;;5.18;1.50;;;1.70;99.90;;;;;;4877026;29;20028;-66
2022/01/06 02:51:12;;;;;;;3.58;1.10;;;1.80;99.90;;;;;;4880286;29;20039;-66
2022/01/06 02:53:37;;;;;;;7.63;1.63;;;1.70;99.90;;;;;;4890971;29;20238;-66
2022/01/06 02:56:03;;;;;;;11.52;1.40;;;1.70;99.90;;;;;;4883992;29;20036;-65
2022/01/06 02:58:28;;;;;;;3.45;1.08;;;1.60;99.90;;;;;;4897040;29;20553;-66
2022/01/06 03:00:54;;;;;;;5.35;0.90;;;1.60;99.90;;;;;;4877834;29;20068;-66
2022/01/06 03:03:19;;;;;;;7.55;1.30;;;1.60;99.90;;;;;;4897883;29;20414;-66
2022/01/06 03:05:45;;;;;;;5.03;0.70;;;1.60;99.90;;;;;;4881872;29;20031;-66
2022/01/06 03:08:11;;;;;;;8.77;1.42;;;1.60;99.90;;;;;;4883603;29;20135;-66
2022/01/06 03:10:41;;;;;;;6.35;1.10;;;1.50;99.90;;;;;;4895888;29;20091;-66
2022/01/06 03:13:06;;;;;;;9.35;1.30;;;1.60;99.90;;;;;;4893176;29;20051;-66
2022/01/06 03:15:32;;;;;;;5.30;1.20;;;1.50;99.90;;;;;;4895651;29;20036;-66
2022/01/06 03:17:57;;;;;;;4.82;0.68;;;1.50;99.90;;;;;;4894147;29;20032;-66
2022/01/06 03:20:23;;;;;;;3.33;0.80;;;1.40;99.90;;;;;;4881811;29;20045;-66
2022/01/06 03:22:49;;;;;;;5.53;1.02;;;1.40;99.90;;;;;;4893467;29;20040;-65
2022/01/06 03:25:15;;;;;;;10.75;1.73;;;1.30;99.90;;;;;;4895869;29;20036;-66
2022/01/06 03:27:40;;;;;;;6.00;1.45;;;1.60;99.90;;;;;;4897706;29;20581;-66
2022/01/06 03:30:06;;;;;;;6.20;1.38;;;1.20;99.90;;;;;;4894777;29;20032;-66
2022/01/06 03:32:31;;;;;;;10.90;1.17;;;1.00;99.90;;;;;;4884878;29;20122;-65
2022/01/06 03:34:57;;;;;;;3.03;0.68;;;1.00;99.90;;;;;;4898166;29;20047;-66
2022/01/06 03:37:22;;;;;;;3.60;1.02;;;0.90;99.90;;;;;;4892618;29;20047;-66
2022/01/06 03:39:48;;;;;;;4.32;0.70;;;0.80;99.90;;;;;;4896489;29;20043;-65
2022/01/06 03:42:13;;;;;;;7.05;1.08;;;0.80;99.90;;;;;;4896015;29;20047;-65
2022/01/06 03:44:39;;;;;;;6.55;1.10;;;0.70;99.90;;;;;;4896007;29;20083;-66
2022/01/06 03:47:04;;;;;;;2.30;0.68;;;0.60;99.90;;;;;;4897870;29;20036;-65
2022/01/06 03:49:30;;;;;;;8.50;1.02;;;1.10;99.90;;;;;;4894226;29;20151;-66
2022/01/06 03:51:55;;;;;;;5.35;0.80;;;0.60;99.90;;;;;;4887664;29;20100;-65
2022/01/06 03:54:21;;;;;;;1.77;0.68;;;0.30;99.90;;;;;;4878647;29;20043;-65
2022/01/06 03:56:48;;;;;;;9.05;1.00;;;0.50;99.90;;;;;;4899803;29;20040;-65
2022/01/06 03:59:14;;;;;;;4.22;0.73;;;0.60;99.90;;;;;;4881984;29;20036;-66
2022/01/06 04:01:40;;;;;;;3.88;1.10;;;0.40;99.90;;;;;;4894406;29;20028;-65
2022/01/06 04:04:05;;;;;;;6.00;1.00;;;0.40;99.90;;;;;;4891773;29;20036;-65
2022/01/06 04:06:33;;;;;;;2.92;1.08;;;0.30;99.90;;;;;;4894612;29;20047;-65
2022/01/06 04:08:58;;;;;;;12.07;1.20;;;0.30;99.90;;;;;;4896245;29;20025;-65
2022/01/06 04:11:24;;;;;;;7.70;1.45;;;0.30;99.90;;;;;;4896117;29;20037;-65
2022/01/06 04:13:49;;;;;;;4.78;0.70;;;0.30;99.90;;;;;;4883019;29;20029;-65
2022/01/06 04:16:17;;;;;;;9.30;1.25;;;0.20;99.90;;;;;;4865950;29;20063;-65
2022/01/06 04:18:42;;;;;;;2.38;0.95;;;0.10;99.90;;;;;;4881475;29;20116;-65
2022/01/06 04:21:08;;;;;;;2.35;0.80;;;0.10;99.90;;;;;;4881670;29;20205;-65
2022/01/06 04:23:33;;;;;;;6.93;1.58;;;0.00;99.90;;;;;;4895782;29;20029;-65
2022/01/06 04:25:59;;;;;;;2.33;0.77;;;0.10;99.90;;;;;;4877742;29;20911;-65
2022/01/06 04:28:24;;;;;;;1.08;0.63;;;0.10;99.90;;;;;;4895039;29;20032;-64
2022/01/06 04:30:50;;;;;;;2.80;0.70;;;0.10;99.90;;;;;;4894927;29;20450;-69
2022/01/06 04:33:15;;;;;;;3.75;0.75;;;0.00;99.90;;;;;;4890484;29;20055;-69
2022/01/06 04:35:41;;;;;;;4.03;0.68;;;-0.10;99.90;;;;;;4894776;29;20039;-69
2022/01/06 04:38:06;;;;;;;6.90;1.08;;;-0.10;99.90;;;;;;4892299;29;20048;-69
2022/01/06 04:40:32;;;;;;;3.83;0.82;;;-0.10;99.90;;;;;;4891673;29;20040;-69
2022/01/06 04:42:57;;;;;;;3.95;0.75;;;-0.10;99.90;;;;;;4874938;29;20037;-69
2022/01/06 04:45:23;;;;;;;5.38;2.08;;;-0.20;99.90;;;;;;4887189;29;20048;-69
2022/01/06 04:47:48;;;;;;;6.85;0.70;;;-0.20;99.90;;;;;;4892653;29;20051;-69
2022/01/06 04:50:14;;;;;;;5.20;0.60;;;-0.30;99.90;;;;;;4897554;29;20036;-69
2022/01/06 04:52:39;;;;;;;1.77;0.50;;;-0.40;99.90;;;;;;4893257;29;20055;-69
2022/01/06 04:55:05;;;;;;;2.28;0.70;;;-0.50;99.90;;;;;;4893610;29;20036;-69
2022/01/06 04:57:30;;;;;;;3.92;0.73;;;-0.50;99.90;;;;;;4882223;29;20036;-69
2022/01/06 04:59:56;;;;;;;7.85;1.13;;;-0.40;99.90;;;;;;4894204;29;20074;-69
2022/01/06 05:02:21;;;;;;;5.57;0.95;;;-0.50;99.90;;;;;;4897481;29;20123;-68
2022/01/06 05:04:50;;;;;;;2.85;0.70;;;-0.50;99.90;;;;;;4880114;29;20024;-69
2022/01/06 05:07:15;;;;;;;4.30;0.68;;;-0.50;99.90;;;;;;4881584;29;20211;-69
2022/01/06 05:09:41;;;;;;;5.53;1.00;;;-0.60;99.90;;;;;;4877275;29;20032;-69
2022/01/06 05:12:06;;;;;;;7.95;0.82;;;-0.60;99.90;;;;;;4887018;29;20028;-69
2022/01/06 05:14:32;;;;;;;2.65;0.80;;;-0.60;99.90;;;;;;4897383;29;20071;-69
2022/01/06 05:16:59;;;;;;;4.30;0.88;;;-0.60;99.90;;;;;;4897446;29;20564;-69
2022/01/06 05:19:25;;;;;;;3.83;0.80;;;-0.60;99.90;;;;;;4887896;29;20104;-69
2022/01/06 05:21:52;;;;;;;8.73;0.80;;;-0.50;99.90;;;;;;4898391;29;20040;-69
2022/01/06 05:24:17;;;;;;;4.25;1.00;;;-0.50;99.90;;;;;;4895799;29;20138;-69
2022/01/06 05:26:43;;;;;;;7.15;1.38;;;-0.50;99.90;;;;;;4893207;29;20476;-69
2022/01/06 05:29:09;;;;;;;3.45;1.10;;;-0.50;99.90;;;;;;4893044;29;20032;-68
2022/01/06 05:31:34;;;;;;;7.65;1.60;;;-0.50;99.90;;;;;;4899041;29;20155;-68
2022/01/06 05:34:00;;;;;;;3.97;1.00;;;-0.50;99.90;;;;;;4885138;29;20108;-68
2022/01/06 05:36:25;;;;;;;13.23;1.25;;;-0.50;99.90;;;;;;4895625;29;20240;-68
2022/01/06 05:38:51;;;;;;;9.02;1.05;;;-0.40;99.90;;;;;;4870265;29;20040;-68
2022/01/06 05:41:16;;;;;;;6.40;1.15;;;-0.40;99.90;;;;;;4893270;29;20051;-68
2022/01/06 05:43:42;;;;;;;8.43;1.00;;;-0.40;99.90;;;;;;4864545;29;20067;-69
2022/01/06 05:46:07;;;;;;;7.18;1.15;;;-0.40;99.90;;;;;;4898080;29;20119;-68
2022/01/06 05:48:32;;;;;;;5.93;1.15;;;-0.40;99.90;;;;;;4899403;29;20059;-68
2022/01/06 05:50:58;;;;;;;3.28;0.93;;;-0.40;99.90;;;;;;4878907;29;20033;-68
2022/01/06 05:53:24;;;;;;;3.75;0.70;;;-0.40;99.90;;;;;;4895350;29;20120;-68
2022/01/06 05:55:49;;;;;;;6.55;1.20;;;-0.40;99.90;;;;;;4883287;29;20040;-68
2022/01/06 05:58:15;;;;;;;6.50;1.35;;;-0.40;99.90;;;;;;4903020;29;20942;-68
2022/01/06 06:00:40;;;;;;;4.43;0.90;;;-0.40;99.90;;;;;;4884965;29;20075;-68
2022/01/06 06:03:06;;;;;;;10.77;1.42;;;-0.40;99.90;;;;;;4897260;29;20040;-68
2022/01/06 06:05:31;;;;;;;9.45;1.23;;;-0.40;99.90;;;;;;4892925;29;20063;-68
2022/01/06 06:07:57;;;;;;;6.85;1.13;;;-0.40;99.90;;;;;;4879261;29;20028;-68
2022/01/06 06:10:22;;;;;;;5.13;1.30;;;-0.30;99.90;;;;;;4870470;29;20039;-68
2022/01/06 06:12:52;;;;;;;6.43;1.48;;;-0.30;99.90;;;;;;4886045;29;20134;-68
2022/01/06 06:15:18;;;;;;;8.18;1.70;;;-0.30;99.90;;;;;;4881727;29;20058;-68
2022/01/06 06:17:43;;;;;;;9.00;1.20;;;-0.30;99.90;;;;;;4895101;29;20487;-68
2022/01/06 06:20:09;;;;;;;6.32;1.00;;;-0.30;99.90;;;;;;4892117;29;20036;-68
2022/01/06 06:22:34;;;;;;;5.38;1.38;;;-0.30;99.90;;;;;;4894743;29;20056;-68
2022/01/06 06:25:00;;;;;;;9.13;1.27;;;-0.30;99.90;;;;;;4893019;29;20643;-68
2022/01/06 06:27:25;;;;;;;7.43;1.30;;;-0.40;99.90;;;;;;4895072;29;20213;-68
2022/01/06 06:29:51;;;;;;;3.95;1.30;;;-0.40;99.90;;;;;;4893832;29;20107;-68
2022/01/06 06:32:16;;;;;;;10.15;1.77;;;-0.40;99.90;;;;;;4900175;29;20032;-68
2022/01/06 06:34:42;;;;;;;2.55;1.08;;;-0.40;99.90;;;;;;4898272;29;20032;-69
2022/01/06 06:37:07;;;;;;;6.78;1.50;;;-0.40;99.90;;;;;;4895805;29;20075;-69
2022/01/06 06:39:33;;;;;;;4.38;1.60;;;-0.40;99.90;;;;;;4896141;29;20135;-69
2022/01/06 06:41:58;;;;;;;7.25;1.40;;;-0.30;99.90;;;;;;4897084;29;20322;-69
2022/01/06 06:44:24;;;;;;;10.45;1.50;;;-0.40;99.90;;;;;;4899837;29;20040;-68
2022/01/06 06:46:51;;;;;;;6.85;1.45;;;-0.40;99.90;;;;;;4895275;29;20060;-68
2022/01/06 06:49:16;;;;;;;6.00;1.45;;;-0.40;99.90;;;;;;4899345;29;20098;-68
2022/01/06 06:51:42;;;;;;;5.57;1.52;;;-0.30;99.90;;;;;;4900806;29;20719;-69
2022/01/06 06:54:07;;;;;;;5.18;1.10;;;-0.40;99.90;;;;;;4895557;29;20032;-68
2022/01/06 06:56:33;;;;;;;8.73;1.38;;;-0.40;99.90;;;;;;4898094;29;20556;-68
2022/01/06 06:58:58;;;;;;;5.97;1.13;;;-0.40;99.90;;;;;;4881806;29;20046;-69
2022/01/06 07:01:24;;;;;;;7.65;1.48;;;-0.30;99.90;;;;;;4890654;29;20060;-68
2022/01/06 07:03:49;;;;;;;8.85;1.52;;;-0.30;99.90;;;;;;4897435;29;20032;-69
2022/01/06 07:06:15;;;;;;;6.25;1.27;;;-0.40;99.90;;;;;;4894117;29;20870;-69
2022/01/06 07:08:40;;;;;;;3.40;1.40;;;-0.40;99.90;;;;;;4897174;29;20111;-68
2022/01/06 07:11:06;;;;;;;6.35;1.50;;;-0.40;99.90;;;;;;4881034;29;20144;-68
2022/01/06 07:13:31;;;;;;;4.68;1.08;;;-0.40;99.90;;;;;;4891995;29;20496;-68
2022/01/06 07:15:57;;;;;;;7.53;1.38;;;-0.40;99.90;;;;;;4882259;29;20028;-69
2022/01/06 07:18:22;;;;;;;6.78;1.40;;;-0.40;99.90;;;;;;4883334;29;20825;-68
2022/01/06 07:20:48;;;;;;;6.68;1.20;;;-0.40;99.90;;;;;;4890324;29;20767;-69
2022/01/06 07:23:13;;;;;;;6.90;1.58;;;-0.30;99.90;;;;;;4892897;29;20045;-68
2022/01/06 07:25:39;;;;;;;9.38;1.67;;;-0.30;99.90;;;;;;4900826;29;20028;-68
2022/01/06 07:28:05;;;;;;;6.82;1.55;;;-0.30;99.90;;;;;;4886613;29;20028;-68
2022/01/06 07:30:33;;;;;;;10.30;1.40;;;-0.30;99.90;;;;;;4881688;29;20044;-68
2022/01/06 07:32:59;;;;;;;8.70;1.55;;;-0.30;99.90;;;;;;4895735;29;20064;-68
2022/01/06 07:35:25;;;;;;;6.20;2.08;;;-0.30;99.90;;;;;;4882795;29;20631;-69
2022/01/06 07:37:51;;;;;;;4.57;1.17;;;0.10;99.90;;;;;;4894863;29;20040;-68
2022/01/06 07:40:16;;;;;;;8.32;1.48;;;-0.20;99.90;;;;;;4897607;29;20047;-68
2022/01/06 07:42:41;;;;;;;7.75;1.42;;;-0.20;99.90;;;;;;4894527;29;20484;-68
2022/01/06 07:45:07;;;;;;;8.90;1.45;;;-0.20;99.90;;;;;;4896048;29;20040;-68
2022/01/06 07:47:35;;;;;;;7.75;1.50;;;-0.10;99.90;;;;;;4895450;29;20032;-68
2022/01/06 07:50:01;;;;;;;4.70;1.40;;;-0.10;99.90;;;;;;4897233;29;20043;-67
2022/01/06 07:52:26;;;;;;;10.13;1.67;;;0.00;99.90;;;;;;4895232;29;20032;-67
2022/01/06 07:54:52;;;;;;;6.00;1.58;;;0.10;99.90;;;;;;4896175;29;20038;-67
2022/01/06 07:57:18;;;;;;;5.05;1.40;;;0.20;99.90;;;;;;4883517;29;20040;-67
2022/01/06 07:59:43;;;;;;;12.57;1.63;;;0.30;99.90;;;;;;4883945;29;20031;-67
2022/01/06 08:02:09;;;;;;;5.72;1.20;;;0.30;99.90;;;;;;4877556;29;20032;-67
2022/01/06 08:04:35;;;;;;;5.75;1.70;;;0.40;99.90;;;;;;4890061;29;20063;-67
2022/01/06 08:07:01;;;;;;;5.22;1.42;;;0.40;99.90;;;;;;4893198;29;20024;-67
2022/01/06 08:09:26;;;;;;;5.45;1.55;;;0.40;99.90;;;;;;4894801;29;21046;-70
2022/01/06 08:11:52;;;;;;;3.92;1.27;;;0.40;99.90;;;;;;4897308;29;20043;-67
2022/01/06 08:14:17;;;;;;;5.38;1.33;;;0.50;99.90;;;;;;4883848;29;20912;-67
2022/01/06 08:16:43;;;;;;;8.80;1.45;;;0.50;99.90;;;;;;4893927;29;20028;-72
2022/01/06 08:19:08;;;;;;;8.07;1.67;;;0.60;99.90;;;;;;4900436;29;20812;-72
2022/01/06 08:21:34;;;;;;;6.47;1.60;;;0.60;99.90;;;;;;4891969;29;20037;-68
2022/01/06 08:23:59;;;;;;;4.38;1.48;;;0.60;99.90;;;;;;4884633;29;20115;-68
2022/01/06 08:26:25;;;;;;;9.18;1.48;;;0.60;99.90;;;;;;4900284;29;20031;-68
2022/01/06 08:28:50;;;;;;;5.47;1.30;;;0.70;99.90;;;;;;4880172;29;20116;-68
2022/01/06 08:31:16;;;;;;;3.42;1.20;;;0.70;99.90;;;;;;4886366;29;20044;-68
2022/01/06 08:33:42;;;;;;;4.28;1.52;;;0.80;99.90;;;;;;4894656;29;20039;-68
2022/01/06 08:36:07;;;;;;;4.30;1.15;;;0.90;99.90;;;;;;4895726;29;20036;-67
2022/01/06 08:38:33;;;;;;;6.78;1.88;;;0.90;99.90;;;;;;4895272;29;20032;-68
2022/01/06 08:40:58;;;;;;;8.82;1.50;;;1.00;99.90;;;;;;4897768;29;20076;-68
2022/01/06 08:43:27;;;;;;;6.45;1.80;;;1.00;99.90;;;;;;4900906;29;20040;-68
2022/01/06 08:45:53;;;;;;;4.93;1.70;;;1.10;99.90;;;;;;4901330;29;20032;-68
2022/01/06 08:48:18;;;;;;;8.00;1.30;;;1.20;99.90;;;;;;4886196;29;20036;-68
2022/01/06 08:50:44;;;;;;;5.55;1.38;;;1.20;99.90;;;;;;4904735;29;20043;-68
2022/01/06 08:53:09;;;;;;;5.95;1.45;;;1.20;99.90;;;;;;4872438;29;20535;-68
2022/01/06 08:55:35;;;;;;;5.63;1.40;;;1.20;99.90;;;;;;4899923;29;20507;-68
2022/01/06 08:58:00;;;;;;;6.70;1.15;;;1.30;99.90;;;;;;4899644;29;20115;-67
2022/01/06 09:00:27;;;;;;;7.57;1.58;;;1.30;99.90;;;;;;4885743;29;20488;-68
2022/01/06 09:02:52;;;;;;;2.92;1.20;;;1.40;99.90;;;;;;4902445;29;20119;-70
2022/01/06 09:05:18;;;;;;;5.25;1.90;;;1.40;99.90;;;;;;4883453;29;20032;-68
2022/01/06 09:07:44;;;;;;;3.55;1.40;;;1.50;99.90;;;;;;4893048;29;21104;-67
2022/01/06 09:10:09;;;;;;;4.32;1.27;;;1.60;99.90;;;;;;4896321;29;20115;-67
2022/01/06 09:12:34;;;;;;;9.75;4.03;;;1.60;99.90;;;;;;4899220;29;20028;-68
2022/01/06 09:15:00;;;;;;;8.48;1.80;;;1.60;99.90;;;;;;4901271;29;20453;-68
2022/01/06 09:17:25;;;;;;;7.00;1.80;;;1.70;99.90;;;;;;4894205;29;20036;-68
2022/01/06 09:19:51;;;;;;;9.05;3.00;;;1.80;99.90;;;;;;4897637;29;20032;-67
2022/01/06 09:22:16;;;;;;;15.25;3.97;;;1.90;99.90;;;;;;4899402;29;20172;-68
2022/01/06 09:24:42;;;;;;;4.93;1.20;;;2.00;99.90;;;;;;4879822;29;20036;-67
2022/01/06 09:27:07;;;;;;;8.10;1.40;;;2.00;99.90;;;;;;4883159;29;20033;-67
2022/01/06 09:29:33;;;;;;;5.40;1.23;;;2.00;99.90;;;;;;4902796;29;20976;-67
2022/01/06 09:31:58;;;;;;;8.68;1.65;;;2.00;99.90;;;;;;4904804;29;20509;-68
2022/01/06 09:34:24;;;;;;;7.30;1.40;;;2.10;99.90;;;;;;4895191;29;20134;-68
2022/01/06 09:36:49;;;;;;;6.13;1.50;;;2.10;99.90;;;;;;4890722;29;20131;-68
2022/01/06 09:39:15;;;;;;;6.63;1.83;;;2.20;99.90;;;;;;4879936;29;20524;-68
2022/01/06 09:41:40;;;;;;;3.92;1.38;;;2.30;99.90;;;;;;4902441;29;20088;-68
2022/01/06 09:44:06;;;;;;;4.32;1.20;;;2.40;99.90;;;;;;4882993;29;20486;-68
2022/01/06 09:46:31;;;;;;;10.25;1.50;;;2.50;99.90;;;;;;4895774;29;20068;-68
2022/01/06 09:48:59;;;;;;;5.47;1.63;;;2.50;99.90;;;;;;4901068;29;20670;-68
2022/01/06 09:51:27;;;;;;;6.38;1.20;;;2.50;99.90;;;;;;4871059;29;20048;-68
2022/01/06 09:53:53;;;;;;;4.35;1.10;;;2.60;99.90;;;;;;4899248;29;20414;-68
2022/01/06 09:56:19;;;;;;;14.60;1.48;;;2.60;99.90;;;;;;4898263;29;20136;-68
2022/01/06 09:58:44;;;;;;;5.78;1.20;;;2.60;99.90;;;;;;4894883;29;20853;-68
2022/01/06 10:01:10;;;;;;;8.77;1.27;;;2.70;99.90;;;;;;4896105;29;20164;-67
2022/01/06 10:03:35;;;;;;;4.93;1.30;;;2.70;99.90;;;;;;4896897;29;20725;-68
2022/01/06 10:06:01;;;;;;;7.25;1.55;;;2.90;99.90;;;;;;4872864;29;20028;-69
2022/01/06 10:08:26;;;;;;;6.53;1.30;;;3.10;99.90;;;;;;4896548;29;20040;-68
2022/01/06 10:10:52;;;;;;;11.48;1.90;;;3.30;99.90;;;;;;4897958;29;20619;-68
2022/01/06 10:13:19;;;;;;;3.28;1.20;;;3.30;99.90;;;;;;4899266;29;20044;-68
2022/01/06 10:15:46;;;;;;;7.78;1.20;;;3.30;99.90;;;;;;4886131;29;20039;-68
2022/01/06 10:18:12;;;;;;;6.13;1.38;;;3.20;99.90;;;;;;4883185;29;20040;-68
2022/01/06 10:20:37;;;;;;;12.15;3.13;;;3.20;99.90;;;;;;4893035;29;20040;-68
2022/01/06 10:23:03;;;;;;;4.80;1.48;;;3.20;99.90;;;;;;4898641;29;20032;-68
2022/01/06 10:25:30;;;;;;;6.93;2.53;;;3.40;99.90;;;;;;4886180;29;20749;-68
2022/01/06 10:27:56;;;;;;;16.17;2.60;;;3.50;99.90;;;;;;4895928;29;20029;-67
2022/01/06 10:30:22;;;;;;;28.02;11.02;;;3.60;99.90;;;;;;4894003;29;20032;-68
2022/01/06 10:32:47;;;;;;;10.73;3.63;;;3.50;99.90;;;;;;4896573;29;20046;-67
2022/01/06 10:35:13;;;;;;;10.30;1.80;;;3.70;99.90;;;;;;4885714;29;20044;-67
2022/01/06 10:37:40;;;;;;;9.43;4.03;;;3.60;99.90;;;;;;4897512;29;20389;-68
2022/01/06 10:40:05;;;;;;;7.80;1.80;;;3.70;99.90;;;;;;4897002;29;20044;-68
2022/01/06 10:42:31;;;;;;;8.30;1.25;;;3.70;99.90;;;;;;4897252;29;20052;-68
2022/01/06 10:44:58;;;;;;;5.60;1.00;;;3.20;99.90;;;;;;4882888;29;20032;-68
2022/01/06 10:47:24;;;;;;;10.90;2.50;;;3.70;99.90;;;;;;4893298;29;20032;-69
2022/01/06 10:49:49;;;;;;;13.27;3.88;;;3.70;99.90;;;;;;4898618;29;20385;-73
2022/01/06 10:52:15;;;;;;;4.10;1.90;;;3.80;99.90;;;;;;4902292;29;20040;-73
2022/01/06 10:54:40;;;;;;;4.28;1.33;;;3.80;99.90;;;;;;4896648;29;20039;-73
2022/01/06 10:57:08;;;;;;;6.78;2.08;;;3.90;99.90;;;;;;4885563;29;20048;-74
2022/01/06 10:59:34;;;;;;;6.07;1.88;;;4.00;99.90;;;;;;4884837;29;20043;-74
2022/01/06 11:01:59;;;;;;;3.08;1.27;;;4.10;99.90;;;;;;4886101;29;20040;-74
2022/01/06 11:04:25;;;;;;;6.47;1.35;;;4.20;99.90;;;;;;4874534;29;20062;-74
2022/01/06 11:06:50;;;;;;;4.07;1.50;;;4.30;99.90;;;;;;4875060;29;20085;-74
2022/01/06 11:09:16;;;;;;;4.95;1.40;;;4.40;99.90;;;;;;4883899;29;20043;-74
2022/01/06 11:12:26;;;;;;;5.47;0.98;;;4.60;99.90;;;;;;4900315;29;20076;-73
2022/01/06 11:14:30;;;;;;;3.47;0.93;;;4.70;99.90;;;;;;4896410;29;20524;-74
2022/01/06 11:16:55;;;;;;;3.00;0.95;;;4.70;99.90;;;;;;4896754;29;20063;-74
2022/01/06 11:19:21;;;;;;;4.25;1.05;;;4.70;99.90;;;;;;4897221;29;20407;-75
2022/01/06 11:21:46;;;;;;;5.32;0.82;;;4.80;99.90;;;;;;4914618;29;20031;-74
2022/01/06 11:24:12;;;;;;;6.43;1.45;;;4.80;99.90;;;;;;4915072;29;20079;-75
2022/01/06 11:26:37;;;;;;;3.90;1.02;;;4.80;99.90;;;;;;4908555;29;20040;-75
2022/01/06 11:29:03;;;;;;;6.03;1.00;;;4.80;99.90;;;;;;4888964;29;20099;-74
2022/01/06 11:31:28;;;;;;;2.72;0.95;;;4.80;99.90;;;;;;4884767;29;20130;-73
2022/01/06 11:33:54;;;;;;;3.83;1.20;;;4.80;99.90;;;;;;4898410;29;20042;-74
2022/01/06 11:36:19;;;;;;;2.95;1.10;;;4.70;99.90;;;;;;4911298;29;20051;-74
2022/01/06 11:38:45;;;;;;;6.22;1.15;;;4.60;99.90;;;;;;4886235;29;20043;-74
2022/01/06 11:41:11;;;;;;;2.90;1.10;;;4.70;99.90;;;;;;4900918;29;20929;-74
2022/01/06 11:43:36;;;;;;;4.00;0.90;;;4.80;99.90;;;;;;4888024;29;20040;-74
2022/01/06 11:46:02;;;;;;;5.38;0.80;;;5.10;99.90;;;;;;4905109;29;20091;-74
2022/01/06 11:48:27;;;;;;;7.43;1.05;;;5.20;99.90;;;;;;4883989;29;20072;-74
2022/01/06 11:50:53;;;;;;;1.48;0.80;;;5.20;99.90;;;;;;4890180;29;20036;-71
2022/01/06 11:53:18;;;;;;;6.18;1.00;;;5.20;99.90;;;;;;4893253;29;20052;-71
2022/01/06 11:55:44;;;;;;;3.78;1.10;;;5.20;99.90;;;;;;4870419;29;20119;-73
2022/01/06 11:58:09;;;;;;;10.13;1.27;;;5.20;99.90;;;;;;4882959;29;20464;-73
2022/01/06 12:00:35;;;;;;;5.65;1.00;;;5.20;99.90;;;;;;4883982;29;20052;-74
2022/01/06 12:03:01;;;;;;;4.15;0.88;;;5.50;99.90;;;;;;4886203;29;20142;-73
2022/01/06 12:05:26;;;;;;;2.85;0.88;;;5.60;99.90;;;;;;4895489;29;20065;-73
2022/01/06 12:07:52;;;;;;;5.70;1.13;;;5.90;99.90;;;;;;4886236;29;20036;-74
2022/01/06 12:10:17;;;;;;;4.70;1.20;;;6.10;99.90;;;;;;4898446;29;20059;-74
2022/01/06 12:12:43;;;;;;;2.20;1.00;;;6.30;99.90;;;;;;4898580;29;20511;-74
2022/01/06 12:15:08;;;;;;;4.18;2.15;;;6.40;99.90;;;;;;4897070;29;20814;-74
2022/01/06 12:17:34;;;;;;;3.65;1.50;;;6.50;99.90;;;;;;4903217;29;20059;-73
2022/01/06 12:20:00;;;;;;;4.85;1.52;;;6.70;99.70;;;;;;4897195;29;20031;-74
2022/01/06 12:22:27;;;;;;;3.30;0.77;;;7.00;98.20;;;;;;4904146;29;20055;-73
2022/01/06 12:24:52;;;;;;;13.20;4.30;;;7.20;96.90;;;;;;4905978;29;20601;-73
2022/01/06 12:27:18;;;;;;;2.47;0.98;;;7.10;97.00;;;;;;4878146;29;20047;-75
2022/01/06 12:29:43;;;;;;;25.98;12.57;;;7.00;96.60;;;;;;4867157;29;20450;-73
2022/01/06 12:32:11;;;;;;;13.60;5.15;;;6.70;97.70;;;;;;4894581;29;20032;-73
2022/01/06 12:34:37;;;;;;;4.35;1.52;;;6.70;98.20;;;;;;4879182;29;20059;-73
2022/01/06 12:37:02;;;;;;;3.88;1.00;;;6.40;98.20;;;;;;4905081;29;20480;-73
2022/01/06 12:39:28;;;;;;;5.82;1.08;;;6.10;98.40;;;;;;4881850;29;20044;-73
2022/01/06 12:41:53;;;;;;;7.25;2.40;;;5.80;99.20;;;;;;4883520;29;20075;-73
2022/01/06 12:44:19;;;;;;;5.18;0.90;;;5.80;99.80;;;;;;4903681;29;20129;-73
2022/01/06 12:46:45;;;;;;;4.93;1.40;;;5.80;99.90;;;;;;4885034;29;20485;-74
2022/01/06 12:49:11;;;;;;;5.80;1.13;;;5.80;99.90;;;;;;4899773;29;20047;-73
2022/01/06 12:51:36;;;;;;;5.38;0.93;;;5.90;99.90;;;;;;4904439;29;20028;-73
2022/01/06 12:54:02;;;;;;;3.85;0.90;;;6.10;99.90;;;;;;4903094;29;20516;-73
2022/01/06 12:56:29;;;;;;;2.80;1.02;;;6.00;99.90;;;;;;4885498;29;20047;-73
2022/01/06 12:58:55;;;;;;;6.63;1.35;;;6.00;99.90;;;;;;4902101;29;20036;-73